createdAt,value
2018-05-07T00:02:56.060Z,11.70
2018-05-07T00:05:59.486Z,11.60
2018-05-07T00:09:02.697Z,11.60
2018-05-07T00:12:06.041Z,11.60
2018-05-07T00:15:09.341Z,11.50
2018-05-07T00:18:12.957Z,11.50
2018-05-07T00:21:17.029Z,11.40
2018-05-07T00:24:20.363Z,11.50
2018-05-07T00:27:24.439Z,11.40
2018-05-07T00:30:27.749Z,11.40
2018-05-07T00:33:31.080Z,11.50
2018-05-07T00:36:35.150Z,11.40
2018-05-07T00:39:38.486Z,11.40
2018-05-07T00:42:42.549Z,11.40
2018-05-07T00:45:45.870Z,11.40
2018-05-07T00:48:49.182Z,11.50
2018-05-07T00:51:52.504Z,11.50
2018-05-07T00:55:13.482Z,11.50
2018-05-07T00:58:16.810Z,11.50
2018-05-07T01:01:20.892Z,11.50
2018-05-07T01:04:24.197Z,11.50
2018-05-07T01:07:27.526Z,11.50
2018-05-07T01:10:30.820Z,11.40
2018-05-07T01:13:34.137Z,11.50
2018-05-07T01:16:37.432Z,11.50
2018-05-07T01:19:40.758Z,11.50
2018-05-07T01:22:44.052Z,11.40
2018-05-07T01:25:47.384Z,11.40
2018-05-07T01:28:51.445Z,11.40
2018-05-07T01:31:54.787Z,11.40
2018-05-07T01:34:58.094Z,11.40
2018-05-07T01:38:02.195Z,11.30
2018-05-07T01:41:05.505Z,11.30
2018-05-07T01:44:08.848Z,11.20
2018-05-07T01:47:12.153Z,11.10
2018-05-07T01:50:15.481Z,11.10
2018-05-07T01:53:18.781Z,11.00
2018-05-07T01:56:22.101Z,11.00
2018-05-07T01:59:25.397Z,10.90
2018-05-07T02:02:28.708Z,10.90
2018-05-07T02:05:32.022Z,10.90
2018-05-07T02:08:35.329Z,10.80
2018-05-07T02:11:38.634Z,10.80
2018-05-07T02:14:41.957Z,10.70
2018-05-07T02:17:45.253Z,10.70
2018-05-07T02:20:48.566Z,10.70
2018-05-07T02:23:52.646Z,10.70
2018-05-07T02:26:55.973Z,10.70
2018-05-07T02:30:00.042Z,10.70
2018-05-07T02:33:03.366Z,10.70
2018-05-07T02:36:06.667Z,10.70
2018-05-07T02:39:09.972Z,10.60
2018-05-07T02:42:14.048Z,10.50
2018-05-07T02:45:17.377Z,10.40
2018-05-07T02:48:20.669Z,10.40
2018-05-07T02:51:24.078Z,10.40
2018-05-07T02:54:28.141Z,10.40
2018-05-07T02:57:31.470Z,10.40
2018-05-07T03:00:34.778Z,10.40
2018-05-07T03:03:38.871Z,10.40
2018-05-07T03:06:42.178Z,10.40
2018-05-07T03:09:45.485Z,10.40
2018-05-07T03:12:49.585Z,10.30
2018-05-07T03:15:52.901Z,10.30
2018-05-07T03:18:56.989Z,10.40
2018-05-07T03:22:00.288Z,10.40
2018-05-07T03:25:03.608Z,10.40
2018-05-07T03:28:07.673Z,10.40
2018-05-07T03:31:10.985Z,10.40
2018-05-07T03:34:14.285Z,10.30
2018-05-07T03:37:17.601Z,10.30
2018-05-07T03:40:20.897Z,10.30
2018-05-07T03:43:24.228Z,10.20
2018-05-07T03:46:27.529Z,10.20
2018-05-07T03:49:30.853Z,10.10
2018-05-07T03:52:34.158Z,10.10
2018-05-07T03:55:37.477Z,10.00
2018-05-07T03:58:40.796Z,10.00
2018-05-07T04:01:44.873Z,10.00
2018-05-07T04:04:48.224Z,10.00
2018-05-07T04:07:51.527Z,10.00
2018-05-07T04:10:54.866Z,10.00
2018-05-07T04:13:58.169Z,10.00
2018-05-07T04:17:19.382Z,10.00
2018-05-07T04:20:38.240Z,10.00
2018-05-07T04:23:59.373Z,10.10
2018-05-07T04:27:02.689Z,10.20
2018-05-07T04:30:06.013Z,10.20
2018-05-07T04:33:09.324Z,10.30
2018-05-07T04:36:12.642Z,10.40
2018-05-07T04:39:15.958Z,10.50
2018-05-07T04:42:20.057Z,10.70
2018-05-07T04:45:23.373Z,10.60
2018-05-07T04:48:27.446Z,10.90
2018-05-07T04:51:30.778Z,10.80
2018-05-07T04:54:34.848Z,11.00
2018-05-07T04:57:38.169Z,11.00
2018-05-07T05:00:41.509Z,11.10
2018-05-07T05:03:44.828Z,11.20
2018-05-07T05:06:48.135Z,11.30
2018-05-07T05:09:51.453Z,11.40
2018-05-07T05:12:56.265Z,11.50
2018-05-07T05:15:59.573Z,11.50
2018-05-07T05:19:02.888Z,11.70
2018-05-07T05:22:06.232Z,11.80
2018-05-07T05:25:09.537Z,11.90
2018-05-07T05:28:13.230Z,11.90
2018-05-07T05:31:16.531Z,12.00
2018-05-07T05:34:19.866Z,12.10
2018-05-07T05:37:23.246Z,12.30
2018-05-07T05:40:26.514Z,12.40
2018-05-07T05:43:29.844Z,12.50
2018-05-07T05:46:33.151Z,12.60
2018-05-07T05:49:36.450Z,12.70
2018-05-07T05:52:39.764Z,12.90
2018-05-07T05:55:43.090Z,13.00
2018-05-07T05:58:46.417Z,13.20
2018-05-07T06:01:49.729Z,13.40
2018-05-07T06:04:53.069Z,13.50
2018-05-07T06:07:57.137Z,13.70
2018-05-07T06:11:00.456Z,13.70
2018-05-07T06:14:03.775Z,13.80
2018-05-07T06:17:07.873Z,14.10
2018-05-07T06:20:11.173Z,14.10
2018-05-07T06:23:14.500Z,14.30
2018-05-07T06:26:17.805Z,14.40
2018-05-07T06:29:21.143Z,14.60
2018-05-07T06:32:24.448Z,14.70
2018-05-07T06:35:27.781Z,14.90
2018-05-07T06:38:31.092Z,15.00
2018-05-07T06:41:34.433Z,15.20
2018-05-07T06:44:37.758Z,15.40
2018-05-07T06:47:41.846Z,15.70
2018-05-07T06:50:45.171Z,15.70
2018-05-07T06:53:49.241Z,16.00
2018-05-07T06:56:52.582Z,16.00
2018-05-07T06:59:56.660Z,16.30
2018-05-07T07:03:00.002Z,16.20
2018-05-07T07:06:03.320Z,16.40
2018-05-07T07:09:06.665Z,16.60
2018-05-07T07:12:09.972Z,16.80
2018-05-07T07:15:13.310Z,16.90
2018-05-07T07:18:16.613Z,17.10
2018-05-07T07:21:19.936Z,17.20
2018-05-07T07:24:23.237Z,17.20
2018-05-07T07:27:26.559Z,17.40
2018-05-07T07:30:30.633Z,17.70
2018-05-07T07:33:33.962Z,17.60
2018-05-07T07:36:37.263Z,17.70
2018-05-07T07:39:41.356Z,18.00
2018-05-07T07:42:44.664Z,18.00
2018-05-07T07:45:47.986Z,18.20
2018-05-07T07:48:52.054Z,18.50
2018-05-07T07:51:55.386Z,18.50
2018-05-07T07:54:59.465Z,18.70
2018-05-07T07:58:02.802Z,18.70
2018-05-07T08:01:06.865Z,18.90
2018-05-07T08:04:10.200Z,18.90
2018-05-07T08:07:13.501Z,19.00
2018-05-07T08:10:16.840Z,19.20
2018-05-07T08:13:20.148Z,19.20
2018-05-07T08:16:23.465Z,19.30
2018-05-07T08:19:26.766Z,19.40
2018-05-07T08:22:30.205Z,19.50
2018-05-07T08:25:33.514Z,19.70
2018-05-07T08:28:36.829Z,19.80
2018-05-07T08:31:40.157Z,19.90
2018-05-07T08:34:43.466Z,19.90
2018-05-07T08:37:46.790Z,20.00
2018-05-07T08:40:50.096Z,20.10
2018-05-07T08:43:53.431Z,20.20
2018-05-07T08:46:56.734Z,20.20
2018-05-07T08:50:00.068Z,20.40
2018-05-07T08:53:04.186Z,20.50
2018-05-07T08:56:07.490Z,20.50
2018-05-07T08:59:10.809Z,20.50
2018-05-07T09:02:14.183Z,20.60
2018-05-07T09:05:17.482Z,20.70
2018-05-07T09:08:20.793Z,20.80
2018-05-07T09:11:24.108Z,20.90
2018-05-07T09:14:27.421Z,20.90
2018-05-07T09:17:30.734Z,20.90
2018-05-07T09:20:34.058Z,21.00
2018-05-07T09:23:37.372Z,21.20
2018-05-07T09:26:40.692Z,21.20
2018-05-07T09:29:43.990Z,21.30
2018-05-07T09:32:47.315Z,21.30
2018-05-07T09:35:50.622Z,21.30
2018-05-07T09:38:53.984Z,21.30
2018-05-07T09:41:57.306Z,21.30
2018-05-07T09:45:00.624Z,21.30
2018-05-07T09:48:04.719Z,21.20
2018-05-07T09:51:08.028Z,21.30
2018-05-07T09:54:12.121Z,21.40
2018-05-07T09:57:15.424Z,21.40
2018-05-07T10:00:18.745Z,21.40
2018-05-07T10:03:22.832Z,21.50
2018-05-07T10:06:26.133Z,21.50
2018-05-07T10:09:29.475Z,21.60
2018-05-07T10:12:32.789Z,21.60
2018-05-07T10:15:36.110Z,21.60
2018-05-07T10:18:39.445Z,21.70
2018-05-07T10:21:43.513Z,21.90
2018-05-07T10:24:46.847Z,21.90
2018-05-07T10:27:50.148Z,22.10
2018-05-07T10:30:54.236Z,22.30
2018-05-07T10:33:57.540Z,22.30
2018-05-07T10:37:00.887Z,22.30
2018-05-07T10:40:04.197Z,22.30
2018-05-07T10:43:07.517Z,22.30
2018-05-07T10:46:10.829Z,22.40
2018-05-07T10:49:14.151Z,22.50
2018-05-07T10:52:17.457Z,22.60
2018-05-07T10:55:20.777Z,22.60
2018-05-07T10:58:24.079Z,22.70
2018-05-07T11:01:27.418Z,22.70
2018-05-07T11:04:31.499Z,22.70
2018-05-07T11:07:34.825Z,22.60
2018-05-07T11:10:38.894Z,22.80
2018-05-07T11:13:42.222Z,22.80
2018-05-07T11:16:45.525Z,22.90
2018-05-07T11:19:48.886Z,22.90
2018-05-07T11:22:52.177Z,22.90
2018-05-07T11:25:55.501Z,23.00
2018-05-07T11:28:58.808Z,23.10
2018-05-07T11:32:02.118Z,23.10
2018-05-07T11:35:06.190Z,23.00
2018-05-07T11:38:09.502Z,23.00
2018-05-07T11:41:12.838Z,23.00
2018-05-07T11:44:16.150Z,23.00
2018-05-07T11:47:19.522Z,23.00
2018-05-07T11:50:22.778Z,23.10
2018-05-07T11:53:26.097Z,23.10
2018-05-07T11:56:29.406Z,23.10
2018-05-07T11:59:33.508Z,23.20
2018-05-07T12:02:36.825Z,23.20
2018-05-07T12:05:40.146Z,23.30
2018-05-07T12:08:43.441Z,23.50
2018-05-07T12:11:46.765Z,23.50
2018-05-07T12:14:50.064Z,23.60
2018-05-07T12:17:53.385Z,23.70
2018-05-07T12:20:56.688Z,23.60
2018-05-07T12:24:00.015Z,23.70
2018-05-07T12:27:03.329Z,23.70
2018-05-07T12:30:06.653Z,23.60
2018-05-07T12:33:09.956Z,23.70
2018-05-07T12:36:13.274Z,23.70
2018-05-07T12:39:16.573Z,23.70
2018-05-07T12:42:19.898Z,23.70
2018-05-07T12:45:23.208Z,23.80
2018-05-07T12:48:26.525Z,23.80
2018-05-07T12:51:29.861Z,23.80
2018-05-07T12:54:33.928Z,23.70
2018-05-07T12:57:37.242Z,23.80
2018-05-07T13:00:40.553Z,23.80
2018-05-07T13:03:43.883Z,23.80
2018-05-07T13:06:47.951Z,23.80
2018-05-07T13:09:51.261Z,23.80
2018-05-07T13:12:54.663Z,23.80
2018-05-07T13:15:57.900Z,23.80
2018-05-07T13:19:01.217Z,23.80
2018-05-07T13:22:04.524Z,23.90
2018-05-07T13:25:07.829Z,23.80
2018-05-07T13:28:11.972Z,23.90
2018-05-07T13:31:15.301Z,23.90
2018-05-07T13:34:18.634Z,24.00
2018-05-07T13:37:21.942Z,23.90
2018-05-07T13:40:28.463Z,23.90
2018-05-07T13:43:36.407Z,23.90
2018-05-07T13:46:40.857Z,23.90
2018-05-07T13:49:44.483Z,23.80
2018-05-07T13:52:47.797Z,23.80
2018-05-07T13:55:51.121Z,23.90
2018-05-07T13:58:54.430Z,23.80
2018-05-07T14:01:57.750Z,23.90
2018-05-07T14:05:01.058Z,23.90
2018-05-07T14:08:05.129Z,23.90
2018-05-07T14:11:08.456Z,23.90
2018-05-07T14:14:11.757Z,23.90
2018-05-07T14:17:15.849Z,23.90
2018-05-07T14:20:19.153Z,23.90
2018-05-07T14:23:22.473Z,23.90
2018-05-07T14:26:26.546Z,23.80
2018-05-07T14:29:29.881Z,23.80
2018-05-07T14:32:33.941Z,23.80
2018-05-07T14:35:37.264Z,23.80
2018-05-07T14:38:40.661Z,23.90
2018-05-07T14:41:44.693Z,24.10
2018-05-07T14:44:48.001Z,24.10
2018-05-07T14:47:52.114Z,24.10
2018-05-07T14:50:57.325Z,24.10
2018-05-07T14:54:00.641Z,24.20
2018-05-07T14:57:03.937Z,24.30
2018-05-07T15:00:07.264Z,24.30
2018-05-07T15:03:10.581Z,24.30
2018-05-07T15:06:13.889Z,24.40
2018-05-07T15:09:17.205Z,24.50
2018-05-07T15:12:20.523Z,24.70
2018-05-07T15:15:23.846Z,24.80
2018-05-07T15:18:27.152Z,24.90
2018-05-07T15:21:30.469Z,25.00
2018-05-07T15:24:47.379Z,25.20
2018-05-07T15:27:50.694Z,25.60
2018-05-07T15:30:53.997Z,25.90
2018-05-07T15:33:57.320Z,26.00
2018-05-07T15:37:00.645Z,26.20
2018-05-07T15:40:03.958Z,26.20
2018-05-07T15:43:07.289Z,26.10
2018-05-07T15:46:10.597Z,26.30
2018-05-07T15:49:13.931Z,26.40
2018-05-07T15:52:17.241Z,26.40
2018-05-07T15:55:20.617Z,26.50
2018-05-07T15:58:23.893Z,26.70
2018-05-07T16:01:27.210Z,26.90
2018-05-07T16:04:30.509Z,26.60
2018-05-07T16:07:33.826Z,26.20
2018-05-07T16:10:37.142Z,26.20
2018-05-07T16:13:40.461Z,25.70
2018-05-07T16:16:43.764Z,25.20
2018-05-07T16:19:47.198Z,24.70
2018-05-07T16:22:50.517Z,24.10
2018-05-07T16:25:53.931Z,23.70
2018-05-07T16:29:04.906Z,23.30
2018-05-07T16:35:16.291Z,22.70
2018-05-07T16:38:22.231Z,22.50
2018-05-07T16:44:56.589Z,21.80
2018-05-07T16:48:17.691Z,21.90
2018-05-07T16:51:21.785Z,21.80
2018-05-07T16:54:25.417Z,21.60
2018-05-07T16:57:30.250Z,21.40
2018-05-07T17:00:33.818Z,21.30
2018-05-07T17:03:39.641Z,21.10
2018-05-07T17:06:43.110Z,21.10
2018-05-07T17:09:50.492Z,21.10
2018-05-07T17:12:54.959Z,21.00
2018-05-07T17:15:58.530Z,20.90
2018-05-07T17:19:02.015Z,20.80
2018-05-07T17:22:10.710Z,20.70
2018-05-07T17:25:15.529Z,20.60
2018-05-07T17:28:19.635Z,20.50
2018-05-07T17:31:23.099Z,20.40
2018-05-07T17:34:26.434Z,20.30
2018-05-07T17:37:29.794Z,20.20
2018-05-07T17:40:33.108Z,20.10
2018-05-07T17:43:36.445Z,20.10
2018-05-07T17:46:58.356Z,19.90
2018-05-07T17:50:01.670Z,19.90
2018-05-07T17:53:04.981Z,19.80
2018-05-07T17:56:09.048Z,19.60
2018-05-07T17:59:12.380Z,19.60
2018-05-07T18:02:16.457Z,19.40
2018-05-07T18:05:19.781Z,19.40
2018-05-07T18:08:23.081Z,19.30
2018-05-07T18:11:26.405Z,19.20
2018-05-07T18:14:30.477Z,18.90
2018-05-07T18:17:33.790Z,19.00
2018-05-07T18:20:37.106Z,19.00
2018-05-07T18:23:40.406Z,18.80
2018-05-07T18:26:43.724Z,18.80
2018-05-07T18:29:47.026Z,18.70
2018-05-07T18:32:50.340Z,18.60
2018-05-07T18:35:53.642Z,18.50
2018-05-07T18:38:56.952Z,18.40
2018-05-07T18:42:00.281Z,18.40
2018-05-07T18:45:03.586Z,18.20
2018-05-07T18:48:06.894Z,18.10
2018-05-07T18:51:10.193Z,18.10
2018-05-07T18:54:13.514Z,17.90
2018-05-07T18:57:16.813Z,17.90
2018-05-07T19:00:20.141Z,17.80
2018-05-07T19:03:23.449Z,17.70
2018-05-07T19:06:27.545Z,17.50
2018-05-07T19:09:30.845Z,17.40
2018-05-07T19:12:34.786Z,17.40
2018-05-07T19:15:41.643Z,17.20
2018-05-07T19:18:49.191Z,17.20
2018-05-07T19:22:06.959Z,17.10
2018-05-07T19:25:10.395Z,16.90
2018-05-07T19:28:13.707Z,16.90
2018-05-07T19:31:17.019Z,16.70
2018-05-07T19:34:20.323Z,16.60
2018-05-07T19:37:23.640Z,16.50
2018-05-07T19:40:26.944Z,16.40
2018-05-07T19:43:30.269Z,16.50
2018-05-07T19:46:34.332Z,16.30
2018-05-07T19:49:37.637Z,16.30
2018-05-07T19:52:40.972Z,16.30
2018-05-07T19:55:45.044Z,16.10
2018-05-07T19:58:48.392Z,16.10
2018-05-07T20:01:51.692Z,16.00
2018-05-07T20:04:55.017Z,15.90
2018-05-07T20:07:58.316Z,15.90
2018-05-07T20:11:01.636Z,15.80
2018-05-07T20:14:04.972Z,15.70
2018-05-07T20:17:09.041Z,15.60
2018-05-07T20:20:12.376Z,15.60
2018-05-07T20:23:16.442Z,15.50
2018-05-07T20:26:19.761Z,15.50
2018-05-07T20:29:23.060Z,15.50
2018-05-07T20:32:26.380Z,15.50
2018-05-07T20:35:30.454Z,15.50
2018-05-07T20:38:33.766Z,15.50
2018-05-07T20:41:37.065Z,15.50
2018-05-07T20:44:40.395Z,15.50
2018-05-07T20:47:43.724Z,15.50
2018-05-07T20:50:47.132Z,15.40
2018-05-07T20:53:50.438Z,15.40
2018-05-07T20:56:53.765Z,15.40
2018-05-07T20:59:57.833Z,15.30
2018-05-07T21:03:01.149Z,15.20
2018-05-07T21:06:04.457Z,15.30
2018-05-07T21:09:07.782Z,15.30
2018-05-07T21:12:11.849Z,15.20
2018-05-07T21:15:15.181Z,15.20
2018-05-07T21:18:19.242Z,15.10
2018-05-07T21:21:22.656Z,15.10
2018-05-07T21:24:26.660Z,15.10
2018-05-07T21:27:29.988Z,15.10
2018-05-07T21:30:33.289Z,15.10
2018-05-07T21:33:36.622Z,15.00
2018-05-07T21:36:39.921Z,15.00
2018-05-07T21:39:43.244Z,14.90
2018-05-07T21:42:46.545Z,14.90
2018-05-07T21:45:49.862Z,14.90
2018-05-07T21:48:53.164Z,14.80
2018-05-07T21:51:56.483Z,14.80
2018-05-07T21:55:00.548Z,14.60
2018-05-07T21:58:03.876Z,14.60
2018-05-07T22:01:07.182Z,14.50
2018-05-07T22:04:11.270Z,14.40
2018-05-07T22:07:14.576Z,14.30
2018-05-07T22:10:18.065Z,14.30
2018-05-07T22:13:21.365Z,14.30
2018-05-07T22:16:24.701Z,14.20
2018-05-07T22:19:28.002Z,14.10
2018-05-07T22:22:31.313Z,14.10
2018-05-07T22:25:34.641Z,14.10
2018-05-07T22:28:37.942Z,14.00
2018-05-07T22:31:41.264Z,14.00
2018-05-07T22:34:44.561Z,13.90
2018-05-07T22:37:48.644Z,13.80
2018-05-07T22:40:51.941Z,13.80
2018-05-07T22:43:55.261Z,13.80
2018-05-07T22:46:58.561Z,13.80
2018-05-07T22:50:01.881Z,13.70
2018-05-07T22:53:05.181Z,13.70
2018-05-07T22:56:08.492Z,13.70
2018-05-07T22:59:11.785Z,13.70
2018-05-07T23:02:15.106Z,13.70
2018-05-07T23:05:18.405Z,13.70
2018-05-07T23:08:21.709Z,13.60
2018-05-07T23:11:25.025Z,13.60
2018-05-07T23:14:28.328Z,13.50
2018-05-07T23:17:31.653Z,13.50
2018-05-07T23:20:34.952Z,13.50
2018-05-07T23:23:38.284Z,13.40
2018-05-07T23:26:41.586Z,13.50
2018-05-07T23:29:44.904Z,13.50
2018-05-07T23:32:48.201Z,13.50
2018-05-07T23:35:51.521Z,13.60
2018-05-07T23:38:55.591Z,13.70
2018-05-07T23:41:58.932Z,13.60
2018-05-07T23:45:02.245Z,13.70
2018-05-07T23:48:05.569Z,13.70
2018-05-07T23:51:08.869Z,13.70
2018-05-07T23:54:12.197Z,13.80
2018-05-07T23:57:15.501Z,13.80
